Time;durP1;ratioP1;P1;durP2;ratioP2;P2;SDS_P1;SDS_P2;PMS_P1;PMS_P2;Temp;Humidity;BMP_temperature;BMP_pressure;BME280_temperature;BME280_humidity;BME280_pressure;Samples;Min_cycle;Max_cycle;Signal;HPM_P1;HPM_P2
2021/01/16 00:00:32;;;;;;;39.70;27.40;;;-0.50;92.80;;;;;;5066686;28;20410;-72
2021/01/16 00:02:58;;;;;;;42.22;27.92;;;-0.60;93.00;;;;;;5070356;28;20403;-72
2021/01/16 00:05:28;;;;;;;37.58;26.63;;;-0.60;93.10;;;;;;5067548;28;21167;-72
2021/01/16 00:08:03;;;;;;;36.67;25.77;;;-0.70;93.00;;;;;;5070707;28;20913;-72
2021/01/16 00:10:31;;;;;;;33.97;24.52;;;-0.70;92.70;;;;;;5049801;28;20439;-72
2021/01/16 00:13:00;;;;;;;35.70;23.73;;;-0.70;92.60;;;;;;5071118;28;20473;-72
2021/01/16 00:15:27;;;;;;;34.78;25.02;;;-0.60;92.50;;;;;;5067325;28;20411;-72
2021/01/16 00:18:05;;;;;;;38.03;25.60;;;-0.70;92.60;;;;;;5070194;28;20848;-72
2021/01/16 00:20:36;;;;;;;37.28;26.40;;;-0.70;92.80;;;;;;5049904;28;20416;-72
2021/01/16 00:23:03;;;;;;;36.05;24.80;;;-0.80;92.70;;;;;;5053100;28;20487;-72
2021/01/16 00:25:30;;;;;;;35.22;24.73;;;-0.70;92.70;;;;;;5049797;28;20392;-72
2021/01/16 00:27:58;;;;;;;36.47;25.63;;;-0.70;92.60;;;;;;5052828;28;20468;-72
2021/01/16 00:30:28;;;;;;;34.13;24.42;;;-0.70;92.70;;;;;;5070396;28;20407;-72
2021/01/16 00:32:55;;;;;;;36.60;24.35;;;-0.70;92.50;;;;;;5049483;28;20408;-72
2021/01/16 00:35:24;;;;;;;37.10;24.95;;;-0.60;92.50;;;;;;5052838;28;20427;-72
2021/01/16 00:37:54;;;;;;;34.75;24.83;;;-0.70;92.20;;;;;;5049859;28;20425;-72
2021/01/16 00:40:23;;;;;;;36.13;24.20;;;-0.60;92.30;;;;;;5032787;28;20467;-72
2021/01/16 00:42:55;;;;;;;36.53;24.83;;;-0.60;92.30;;;;;;5061066;28;20408;-72
2021/01/16 00:45:23;;;;;;;34.65;24.30;;;-0.70;92.60;;;;;;5070055;28;20464;-73
2021/01/16 00:47:50;;;;;;;35.38;25.20;;;-0.70;92.70;;;;;;5066713;28;20415;-72
2021/01/16 00:50:20;;;;;;;35.28;24.13;;;-0.80;92.80;;;;;;5052863;28;20434;-72
2021/01/16 00:52:57;;;;;;;35.13;23.98;;;-0.70;92.60;;;;;;5067096;28;20962;-72
2021/01/16 00:55:26;;;;;;;35.05;24.75;;;-0.70;92.50;;;;;;5069891;28;20847;-72
2021/01/16 00:57:55;;;;;;;36.85;25.45;;;-0.80;92.60;;;;;;5059948;28;21046;-72
2021/01/16 01:00:25;;;;;;;35.55;24.17;;;-0.80;92.60;;;;;;5032303;28;20504;-72
2021/01/16 01:02:51;;;;;;;34.33;24.00;;;-0.80;92.70;;;;;;5052052;28;20497;-72
2021/01/16 01:05:21;;;;;;;32.97;23.60;;;-0.70;92.50;;;;;;5069808;28;20469;-72
2021/01/16 01:07:49;;;;;;;33.80;24.80;;;-0.70;92.40;;;;;;5065781;28;20404;-72
2021/01/16 01:10:40;;;;;;;35.28;24.27;;;-0.70;92.30;;;;;;5069792;28;20914;-72
2021/01/16 01:13:07;;;;;;;32.07;22.80;;;-0.70;92.30;;;;;;5068243;28;20415;-72
2021/01/16 01:15:33;;;;;;;32.42;23.02;;;-0.70;92.20;;;;;;5056850;28;20431;-72
2021/01/16 01:18:01;;;;;;;34.08;23.80;;;-0.60;92.20;;;;;;5056184;28;20496;-72
2021/01/16 01:20:28;;;;;;;32.70;22.80;;;-0.60;91.90;;;;;;5070083;28;20804;-72
2021/01/16 01:22:55;;;;;;;36.35;23.55;;;-0.70;92.00;;;;;;5056976;28;20584;-72
2021/01/16 01:25:22;;;;;;;32.33;22.03;;;-0.70;92.00;;;;;;5038202;28;20449;-72
2021/01/16 01:27:51;;;;;;;32.53;22.40;;;-0.80;91.90;;;;;;5036615;28;20779;-72
2021/01/16 01:30:22;;;;;;;30.48;21.95;;;-0.80;92.10;;;;;;5045434;28;20498;-72
2021/01/16 01:32:51;;;;;;;31.38;22.17;;;-0.70;91.70;;;;;;5073757;28;20895;-72
2021/01/16 01:35:18;;;;;;;29.85;21.05;;;-0.70;91.70;;;;;;5069925;28;20411;-72
2021/01/16 01:37:50;;;;;;;32.53;21.52;;;-0.70;91.40;;;;;;5073446;28;20423;-72
2021/01/16 01:40:20;;;;;;;30.00;20.85;;;-0.70;91.60;;;;;;5069766;28;20404;-72
2021/01/16 01:42:48;;;;;;;31.70;20.90;;;-0.80;91.40;;;;;;5073740;28;20453;-72
2021/01/16 01:45:15;;;;;;;29.92;21.25;;;-0.80;91.30;;;;;;5052205;28;20399;-72
2021/01/16 01:47:43;;;;;;;30.50;20.60;;;-0.90;91.10;;;;;;5073201;28;20447;-72
2021/01/16 01:50:12;;;;;;;29.08;20.48;;;-0.80;91.10;;;;;;5051726;28;20411;-72
2021/01/16 01:52:40;;;;;;;29.13;19.85;;;-0.80;91.10;;;;;;5053196;28;20401;-72
2021/01/16 01:55:09;;;;;;;28.70;20.20;;;-0.80;90.70;;;;;;5035947;28;20437;-72
2021/01/16 01:57:38;;;;;;;31.85;20.38;;;-0.90;90.90;;;;;;5051846;28;20481;-72
2021/01/16 02:00:09;;;;;;;27.92;19.30;;;-0.90;90.80;;;;;;5073386;28;20411;-72
2021/01/16 02:02:37;;;;;;;28.27;19.58;;;-0.90;90.70;;;;;;5052341;28;20453;-72
2021/01/16 02:05:06;;;;;;;24.88;18.08;;;-0.90;90.60;;;;;;5056150;28;20406;-72
2021/01/16 02:07:37;;;;;;;27.45;18.17;;;-0.90;90.80;;;;;;5052089;28;20431;-72
2021/01/16 02:10:11;;;;;;;24.60;18.08;;;-0.90;90.60;;;;;;5073338;28;20502;-72
2021/01/16 02:12:39;;;;;;;27.80;18.63;;;-0.90;90.50;;;;;;5069556;28;20414;-72
2021/01/16 02:15:14;;;;;;;25.23;18.17;;;-0.90;90.40;;;;;;5072811;28;20835;-72
2021/01/16 02:17:44;;;;;;;27.27;18.52;;;-1.00;90.20;;;;;;5051521;28;20458;-72
2021/01/16 02:20:13;;;;;;;25.55;17.80;;;-1.00;90.40;;;;;;5055382;28;20412;-72
2021/01/16 02:23:08;;;;;;;27.65;18.27;;;-1.00;90.20;;;;;;5057423;28;20437;-72
2021/01/16 02:25:40;;;;;;;25.98;17.73;;;-1.00;90.30;;;;;;5053571;28;20415;-72
2021/01/16 02:28:37;;;;;;;23.70;17.00;;;-0.90;90.00;;;;;;5069822;28;20498;-72
2021/01/16 02:31:05;;;;;;;24.85;17.15;;;-1.00;90.20;;;;;;5051650;28;20422;-72
2021/01/16 02:33:36;;;;;;;23.58;16.48;;;-1.00;90.10;;;;;;5068918;28;20415;-72
2021/01/16 02:36:28;;;;;;;23.73;16.53;;;-1.00;90.00;;;;;;5072289;28;20404;-72
2021/01/16 02:39:15;;;;;;;23.40;16.65;;;-1.00;89.90;;;;;;5069119;28;20411;-72
2021/01/16 02:42:06;;;;;;;23.02;16.05;;;-1.00;89.40;;;;;;5054947;28;20447;-72
2021/01/16 02:44:36;;;;;;;22.65;16.42;;;-1.00;89.80;;;;;;5050926;28;20725;-72
2021/01/16 02:47:23;;;;;;;21.85;16.17;;;-1.00;89.40;;;;;;5072732;28;20428;-72
2021/01/16 02:49:59;;;;;;;22.20;15.83;;;-1.00;89.30;;;;;;5039209;28;20510;-72
2021/01/16 02:52:29;;;;;;;25.48;16.20;;;-1.10;89.40;;;;;;5051986;28;20410;-72
2021/01/16 02:54:56;;;;;;;21.75;15.80;;;-1.00;89.40;;;;;;5058833;28;20412;-72
2021/01/16 02:57:23;;;;;;;22.73;15.98;;;-1.00;89.40;;;;;;5054187;28;20565;-72
2021/01/16 02:59:49;;;;;;;21.43;15.47;;;-1.10;89.70;;;;;;5050934;28;20412;-72
2021/01/16 03:02:20;;;;;;;22.27;16.60;;;-1.10;90.10;;;;;;5054163;28;20466;-72
2021/01/16 03:04:46;;;;;;;23.60;16.63;;;-1.10;90.00;;;;;;5064895;28;20421;-72
2021/01/16 03:07:18;;;;;;;22.73;16.17;;;-1.10;90.10;;;;;;5051749;28;20440;-72
2021/01/16 03:09:44;;;;;;;26.60;18.15;;;-1.10;90.00;;;;;;5031708;28;20788;-72
2021/01/16 03:12:11;;;;;;;24.50;17.17;;;-1.10;90.10;;;;;;5051618;28;20467;-72
2021/01/16 03:14:43;;;;;;;23.88;16.65;;;-1.10;90.10;;;;;;5051577;28;20424;-72
2021/01/16 03:17:15;;;;;;;23.40;16.90;;;-1.10;90.30;;;;;;5049016;28;20885;-73
2021/01/16 03:19:46;;;;;;;25.47;17.67;;;-1.20;90.50;;;;;;5051406;28;20821;-72
2021/01/16 03:22:17;;;;;;;23.63;16.85;;;-1.20;90.90;;;;;;5065436;28;20411;-73
2021/01/16 03:24:47;;;;;;;24.27;17.10;;;-1.20;90.70;;;;;;5071504;28;20404;-73
2021/01/16 03:27:16;;;;;;;24.25;17.10;;;-1.10;90.70;;;;;;5067250;28;20435;-73
2021/01/16 03:29:43;;;;;;;23.33;16.65;;;-1.20;90.60;;;;;;5071556;28;20395;-73
2021/01/16 03:32:11;;;;;;;23.07;17.03;;;-1.20;90.60;;;;;;5056480;28;20479;-73
2021/01/16 03:34:45;;;;;;;25.92;17.95;;;-1.10;90.80;;;;;;5051488;28;20440;-73
2021/01/16 03:37:13;;;;;;;23.92;17.38;;;-1.10;90.90;;;;;;5039711;28;20493;-73
2021/01/16 03:39:40;;;;;;;25.17;18.40;;;-1.20;91.10;;;;;;5071259;28;20481;-73
2021/01/16 03:42:07;;;;;;;27.48;18.95;;;-1.20;91.10;;;;;;5050220;28;20736;-73
2021/01/16 03:44:34;;;;;;;25.75;18.30;;;-1.20;91.70;;;;;;5053543;28;20411;-72
2021/01/16 03:47:01;;;;;;;27.67;18.87;;;-1.20;91.40;;;;;;5067396;28;20797;-73
2021/01/16 03:49:28;;;;;;;29.00;20.27;;;-1.10;91.50;;;;;;5053608;28;20490;-73
2021/01/16 03:51:54;;;;;;;27.50;20.52;;;-1.10;91.50;;;;;;5070446;28;20407;-73
2021/01/16 03:54:21;;;;;;;29.48;21.02;;;-1.10;91.60;;;;;;5052224;28;20427;-73
2021/01/16 03:56:47;;;;;;;31.40;21.77;;;-1.10;91.70;;;;;;5053483;28;20451;-73
2021/01/16 03:59:16;;;;;;;31.80;22.05;;;-1.10;91.90;;;;;;5067394;28;20499;-73
2021/01/16 04:01:43;;;;;;;29.75;20.92;;;-1.10;91.90;;;;;;5052828;28;20420;-73
2021/01/16 04:04:10;;;;;;;31.30;21.50;;;-1.00;91.40;;;;;;5067483;28;20422;-72
2021/01/16 04:06:36;;;;;;;32.23;21.87;;;-1.00;91.60;;;;;;5071117;28;20404;-73
2021/01/16 04:09:06;;;;;;;32.22;21.40;;;-1.10;91.50;;;;;;5050157;28;20474;-72
2021/01/16 04:11:33;;;;;;;29.17;20.30;;;-1.10;91.20;;;;;;5053699;28;20461;-72
2021/01/16 04:14:00;;;;;;;30.55;20.35;;;-1.10;91.30;;;;;;5067434;28;20407;-72
2021/01/16 04:16:29;;;;;;;28.33;19.73;;;-1.20;91.20;;;;;;5071383;28;20819;-73
2021/01/16 04:18:55;;;;;;;26.65;19.23;;;-1.20;90.90;;;;;;5049255;28;20495;-73
2021/01/16 04:21:25;;;;;;;27.88;19.85;;;-1.20;91.00;;;;;;5060375;28;20719;-73
2021/01/16 04:23:51;;;;;;;26.48;18.40;;;-1.20;90.70;;;;;;5030826;28;20412;-73
2021/01/16 04:26:18;;;;;;;28.50;19.00;;;-1.20;90.60;;;;;;5070434;28;20877;-73
2021/01/16 04:28:44;;;;;;;25.73;18.33;;;-1.20;90.80;;;;;;5053105;28;20469;-73
2021/01/16 04:31:13;;;;;;;25.17;17.73;;;-1.20;90.50;;;;;;5049495;28;20403;-73
2021/01/16 04:33:40;;;;;;;27.50;17.17;;;-1.20;90.50;;;;;;5052564;28;20432;-73
2021/01/16 04:36:07;;;;;;;23.92;17.50;;;-1.20;90.10;;;;;;5066969;28;20479;-73
2021/01/16 04:38:33;;;;;;;23.55;17.00;;;-1.20;90.10;;;;;;5070279;28;20431;-72
2021/01/16 04:41:01;;;;;;;23.85;17.23;;;-1.20;90.20;;;;;;5038687;28;20409;-73
2021/01/16 04:43:28;;;;;;;23.70;17.30;;;-1.30;90.20;;;;;;5033219;28;20452;-73
2021/01/16 04:46:05;;;;;;;24.15;17.52;;;-1.30;90.30;;;;;;5055188;28;20909;-73
2021/01/16 04:48:34;;;;;;;23.83;17.00;;;-1.30;90.40;;;;;;5069371;28;20415;-72
2021/01/16 04:51:02;;;;;;;24.93;17.47;;;-1.30;90.30;;;;;;5060403;28;20429;-72
2021/01/16 04:53:41;;;;;;;23.88;17.20;;;-1.30;90.30;;;;;;5050325;28;20494;-73
2021/01/16 04:56:09;;;;;;;24.53;17.27;;;-1.30;90.40;;;;;;5052237;28;20415;-72
2021/01/16 04:58:37;;;;;;;22.53;16.53;;;-1.30;90.10;;;;;;5070039;28;20434;-73
2021/01/16 05:01:10;;;;;;;23.30;16.50;;;-1.30;90.00;;;;;;5048468;28;20415;-73
2021/01/16 05:03:46;;;;;;;22.42;15.75;;;-1.30;90.00;;;;;;5052739;28;20403;-73
2021/01/16 05:06:15;;;;;;;21.80;16.17;;;-1.30;90.00;;;;;;5049111;28;20717;-72
2021/01/16 05:08:43;;;;;;;21.70;15.10;;;-1.30;89.80;;;;;;5052517;28;20411;-72
2021/01/16 05:11:15;;;;;;;22.25;16.08;;;-1.30;89.20;;;;;;5069931;28;20411;-73
2021/01/16 05:13:46;;;;;;;21.92;15.77;;;-1.30;89.50;;;;;;5049224;28;20407;-72
2021/01/16 05:16:14;;;;;;;23.13;15.60;;;-1.30;89.00;;;;;;5070267;28;20439;-72
2021/01/16 05:18:45;;;;;;;20.55;15.15;;;-1.20;88.90;;;;;;5066078;28;20879;-73
2021/01/16 05:21:12;;;;;;;21.70;15.32;;;-1.20;88.40;;;;;;5060952;28;20479;-73
2021/01/16 05:23:41;;;;;;;21.63;15.20;;;-1.10;87.70;;;;;;5060899;28;20489;-73
2021/01/16 05:26:09;;;;;;;20.02;14.50;;;-1.20;87.90;;;;;;5069943;28;20416;-73
2021/01/16 05:28:36;;;;;;;20.60;14.95;;;-1.30;88.20;;;;;;5049221;28;20472;-73
2021/01/16 05:31:07;;;;;;;21.47;15.13;;;-1.40;88.90;;;;;;5052020;28;20461;-73
2021/01/16 05:33:39;;;;;;;21.25;15.25;;;-1.40;89.00;;;;;;5048842;28;20407;-73
2021/01/16 05:36:11;;;;;;;22.05;15.35;;;-1.40;89.20;;;;;;5052057;28;20910;-73
2021/01/16 05:38:42;;;;;;;25.00;15.77;;;-1.40;88.60;;;;;;5066424;28;20435;-73
2021/01/16 05:41:13;;;;;;;21.93;15.37;;;-1.40;89.40;;;;;;5069045;28;20427;-72
2021/01/16 05:43:41;;;;;;;20.08;14.80;;;-1.40;89.20;;;;;;5066956;28;20446;-72
2021/01/16 05:46:12;;;;;;;20.60;14.80;;;-1.40;88.40;;;;;;5052328;28;20485;-73
2021/01/16 05:48:39;;;;;;;21.10;15.07;;;-1.30;88.50;;;;;;5066679;28;20403;-72
2021/01/16 05:51:09;;;;;;;20.00;14.68;;;-1.30;88.70;;;;;;5052642;28;20565;-72
2021/01/16 05:53:35;;;;;;;20.70;14.60;;;-1.30;88.50;;;;;;5051266;28;20859;-72
2021/01/16 05:56:02;;;;;;;20.98;14.60;;;-1.40;89.80;;;;;;5066227;28;20427;-72
2021/01/16 05:58:34;;;;;;;20.92;14.48;;;-1.40;89.50;;;;;;5053035;28;20496;-72
2021/01/16 06:01:06;;;;;;;19.92;14.95;;;-1.50;89.30;;;;;;5052093;28;20462;-72
2021/01/16 06:03:38;;;;;;;20.88;13.85;;;-1.40;89.60;;;;;;5056079;28;20471;-73
2021/01/16 06:06:11;;;;;;;19.40;14.40;;;-1.50;89.40;;;;;;5069659;28;20404;-73
2021/01/16 06:08:51;;;;;;;19.17;14.33;;;-1.40;89.20;;;;;;5073706;28;20417;-73
2021/01/16 06:11:22;;;;;;;20.90;14.60;;;-1.50;89.50;;;;;;5065231;28;20599;-72
2021/01/16 06:13:50;;;;;;;20.48;14.63;;;-1.50;89.50;;;;;;5055598;28;20847;-73
2021/01/16 06:16:18;;;;;;;21.38;14.82;;;-1.40;89.60;;;;;;5051766;28;20446;-72
2021/01/16 06:18:52;;;;;;;20.75;14.68;;;-1.60;89.60;;;;;;5073164;28;20497;-73
2021/01/16 06:21:30;;;;;;;19.63;14.20;;;-1.60;89.60;;;;;;5069667;28;20477;-73
2021/01/16 06:24:00;;;;;;;22.08;14.75;;;-1.60;88.30;;;;;;5055297;28;20404;-72
2021/01/16 06:26:28;;;;;;;22.05;15.10;;;-1.60;89.30;;;;;;5062493;28;20440;-73
2021/01/16 06:29:03;;;;;;;26.40;16.88;;;-1.60;89.60;;;;;;5052682;28;20865;-72
2021/01/16 06:31:31;;;;;;;25.67;15.88;;;-1.50;89.30;;;;;;5036702;28;20880;-73
2021/01/16 06:34:01;;;;;;;24.70;15.63;;;-1.40;88.50;;;;;;5054231;28;21042;-73
2021/01/16 06:36:32;;;;;;;21.50;14.40;;;-1.50;87.80;;;;;;5051481;28;20420;-73
2021/01/16 06:39:04;;;;;;;20.88;13.98;;;-1.40;87.30;;;;;;5055195;28;20427;-73
2021/01/16 06:41:33;;;;;;;20.23;13.80;;;-1.50;87.60;;;;;;5052326;28;20404;-72
2021/01/16 06:44:00;;;;;;;21.67;14.10;;;-1.60;87.70;;;;;;5035396;28;20432;-72
2021/01/16 06:46:42;;;;;;;19.33;13.15;;;-1.50;87.30;;;;;;5052402;28;20935;-72
2021/01/16 06:49:23;;;;;;;19.05;13.02;;;-1.60;87.00;;;;;;5053267;28;20399;-72
2021/01/16 06:51:51;;;;;;;17.80;12.60;;;-1.60;87.10;;;;;;5072092;28;20493;-72
2021/01/16 06:54:22;;;;;;;19.33;13.02;;;-1.60;86.70;;;;;;5068679;28;20472;-72
2021/01/16 06:57:01;;;;;;;17.52;12.02;;;-1.60;87.30;;;;;;5072318;28;20793;-73
2021/01/16 06:59:29;;;;;;;17.10;12.00;;;-1.60;86.50;;;;;;5050424;28;20471;-71
2021/01/16 07:01:59;;;;;;;17.85;12.75;;;-1.50;86.40;;;;;;5071954;28;20859;-71
2021/01/16 07:04:32;;;;;;;16.73;12.10;;;-1.60;86.40;;;;;;5068583;28;20487;-71
2021/01/16 07:07:03;;;;;;;19.30;12.80;;;-1.60;87.00;;;;;;5054782;28;20408;-71
2021/01/16 07:09:33;;;;;;;18.47;12.30;;;-1.60;86.70;;;;;;5068545;28;20485;-71
2021/01/16 07:12:01;;;;;;;17.60;12.43;;;-1.50;86.80;;;;;;5071766;28;20407;-71
2021/01/16 07:14:31;;;;;;;17.95;12.18;;;-1.50;86.60;;;;;;5068404;28;20529;-71
2021/01/16 07:16:57;;;;;;;17.90;11.55;;;-1.60;86.20;;;;;;5054524;28;20403;-71
2021/01/16 07:19:24;;;;;;;18.23;12.32;;;-1.60;86.30;;;;;;5050923;28;20866;-71
2021/01/16 07:21:50;;;;;;;16.50;11.18;;;-1.60;86.90;;;;;;5054308;28;20861;-71
2021/01/16 07:24:20;;;;;;;15.90;11.23;;;-1.60;85.90;;;;;;5050668;28;20546;-71
2021/01/16 07:26:49;;;;;;;18.58;12.20;;;-1.50;85.50;;;;;;5054193;28;20954;-71
2021/01/16 07:29:15;;;;;;;17.97;11.90;;;-1.50;85.80;;;;;;5051037;28;20404;-71
2021/01/16 07:31:46;;;;;;;20.60;12.60;;;-1.60;86.70;;;;;;5054098;28;20403;-71
2021/01/16 07:34:13;;;;;;;18.90;11.45;;;-1.60;85.80;;;;;;5054542;28;20414;-72
2021/01/16 07:36:40;;;;;;;17.58;11.80;;;-1.50;85.00;;;;;;5067828;28;20443;-71
2021/01/16 07:39:09;;;;;;;14.00;10.10;;;-1.40;84.00;;;;;;5071648;28;20430;-71
2021/01/16 07:41:38;;;;;;;15.75;10.35;;;-1.40;82.90;;;;;;5067719;28;20408;-71
2021/01/16 07:44:06;;;;;;;14.15;10.18;;;-1.50;83.00;;;;;;5053755;28;20451;-71
2021/01/16 07:46:33;;;;;;;16.52;11.20;;;-1.50;82.90;;;;;;5050067;28;20945;-71
2021/01/16 07:49:00;;;;;;;20.85;13.32;;;-1.50;83.70;;;;;;5053755;28;20410;-71
2021/01/16 07:51:37;;;;;;;20.45;12.70;;;-1.60;84.20;;;;;;5067319;28;20412;-71
2021/01/16 07:54:06;;;;;;;19.45;13.20;;;-1.50;83.90;;;;;;5052952;28;20431;-71
2021/01/16 07:56:43;;;;;;;20.48;13.27;;;-1.50;83.20;;;;;;5067570;28;20477;-71
2021/01/16 07:59:10;;;;;;;17.90;11.87;;;-1.50;83.00;;;;;;5053046;28;20450;-71
2021/01/16 08:02:00;;;;;;;17.88;11.88;;;-1.60;83.60;;;;;;5047585;28;20733;-71
2021/01/16 08:04:45;;;;;;;18.45;12.60;;;-1.50;83.60;;;;;;5071384;28;20743;-70
2021/01/16 08:07:18;;;;;;;16.67;11.20;;;-1.50;83.80;;;;;;5066849;28;20443;-70
2021/01/16 08:09:52;;;;;;;16.40;11.70;;;-1.60;82.80;;;;;;5070966;28;20399;-70
2021/01/16 08:12:20;;;;;;;16.88;10.70;;;-1.50;83.50;;;;;;5049819;28;20477;-70
2021/01/16 08:14:47;;;;;;;19.40;12.98;;;-1.50;83.00;;;;;;5053351;28;20716;-70
2021/01/16 08:17:26;;;;;;;18.60;12.33;;;-1.50;82.50;;;;;;5050000;28;20427;-70
2021/01/16 08:20:14;;;;;;;17.38;11.82;;;-1.50;83.20;;;;;;5070832;28;20398;-70
2021/01/16 08:22:43;;;;;;;16.02;10.90;;;-1.50;83.30;;;;;;5051560;28;20465;-70
2021/01/16 08:25:12;;;;;;;15.00;10.48;;;-1.50;83.70;;;;;;5070492;28;20913;-70
2021/01/16 08:27:41;;;;;;;19.27;11.85;;;-1.40;83.80;;;;;;5049658;28;20468;-71
2021/01/16 08:30:14;;;;;;;19.00;11.80;;;-1.40;83.70;;;;;;5069871;28;20508;-70
2021/01/16 08:33:06;;;;;;;18.67;13.45;;;-1.40;84.10;;;;;;5050905;28;20447;-70
2021/01/16 08:35:39;;;;;;;19.42;13.35;;;-1.40;84.40;;;;;;5033264;28;20406;-70
2021/01/16 08:38:20;;;;;;;20.88;13.88;;;-1.30;84.50;;;;;;5047664;28;20444;-70
2021/01/16 08:41:07;;;;;;;22.10;14.88;;;-1.40;85.30;;;;;;5052883;28;20407;-70
2021/01/16 08:43:42;;;;;;;20.95;13.95;;;-1.30;85.50;;;;;;5067514;28;21123;-70
2021/01/16 08:46:15;;;;;;;19.13;13.15;;;-1.30;85.70;;;;;;5052515;28;20418;-70
2021/01/16 08:49:05;;;;;;;21.02;14.32;;;-1.30;85.20;;;;;;5066753;28;20491;-70
2021/01/16 08:51:39;;;;;;;26.92;17.00;;;-1.40;85.90;;;;;;5052438;28;20400;-71
2021/01/16 08:54:09;;;;;;;23.47;15.17;;;-1.20;86.00;;;;;;5066269;28;20466;-71
2021/01/16 08:56:36;;;;;;;26.43;17.30;;;-1.30;86.40;;;;;;5052185;28;20815;-70
2021/01/16 08:59:32;;;;;;;28.77;19.67;;;-1.30;87.70;;;;;;5067497;28;20431;-71
2021/01/16 09:02:13;;;;;;;31.00;22.35;;;-1.50;88.90;;;;;;5052915;28;20412;-70
2021/01/16 09:04:41;;;;;;;34.35;22.42;;;-1.40;90.10;;;;;;5031124;28;20478;-70
2021/01/16 09:07:20;;;;;;;31.58;22.67;;;-1.40;90.50;;;;;;5052546;28;20485;-70
2021/01/16 09:09:56;;;;;;;24.85;17.83;;;-1.40;90.60;;;;;;5049778;28;20744;-71
2021/01/16 09:12:29;;;;;;;30.37;20.20;;;-1.50;90.70;;;;;;5050085;28;20406;-69
2021/01/16 09:15:24;;;;;;;24.92;17.52;;;-1.30;91.10;;;;;;5032679;28;20449;-69
2021/01/16 09:18:06;;;;;;;28.50;19.58;;;-1.10;90.50;;;;;;5049893;28;20943;-69
2021/01/16 09:20:38;;;;;;;26.08;18.25;;;-1.10;90.30;;;;;;5049280;28;20435;-69
2021/01/16 09:23:19;;;;;;;25.42;18.05;;;-1.00;90.10;;;;;;5070281;28;20435;-71
2021/01/16 09:25:52;;;;;;;26.95;18.90;;;-1.10;90.10;;;;;;5066494;28;20412;-71
2021/01/16 09:28:39;;;;;;;27.67;18.40;;;-1.10;90.10;;;;;;5070020;28;20431;-71
2021/01/16 09:31:26;;;;;;;33.60;23.65;;;-1.10;90.20;;;;;;5049137;28;20427;-71
2021/01/16 09:33:56;;;;;;;27.23;18.75;;;-1.10;90.50;;;;;;5070901;28;20416;-71
2021/01/16 09:36:42;;;;;;;93.32;57.75;;;-1.10;90.40;;;;;;5051769;28;21085;-71
2021/01/16 09:39:22;;;;;;;40.85;28.65;;;-1.20;90.60;;;;;;5072779;28;21218;-71
2021/01/16 09:41:57;;;;;;;39.38;26.70;;;-1.10;90.70;;;;;;5070202;28;20491;-71
2021/01/16 09:44:57;;;;;;;34.63;24.07;;;-1.10;90.80;;;;;;5055702;28;20736;-71
2021/01/16 09:47:29;;;;;;;31.88;22.27;;;-1.00;90.70;;;;;;5034239;28;20566;-71
2021/01/16 09:50:02;;;;;;;32.17;22.27;;;-1.00;90.60;;;;;;5073462;28;20508;-71
2021/01/16 09:52:29;;;;;;;32.10;22.20;;;-1.00;91.00;;;;;;5036617;28;20857;-71
2021/01/16 09:54:55;;;;;;;41.58;24.73;;;-1.00;91.10;;;;;;5055812;28;20403;-71
2021/01/16 09:57:33;;;;;;;38.38;24.63;;;-0.90;90.60;;;;;;5070782;28;20555;-71
2021/01/16 10:00:10;;;;;;;42.08;26.40;;;-0.90;90.50;;;;;;5055968;28;20404;-71
2021/01/16 10:02:46;;;;;;;39.55;24.20;;;-0.90;90.60;;;;;;5056005;28;20395;-71
2021/01/16 10:05:35;;;;;;;46.47;28.77;;;-0.90;90.40;;;;;;5056522;28;20463;-71
2021/01/16 10:08:02;;;;;;;77.30;45.30;;;-0.80;90.30;;;;;;5052634;28;20725;-71
2021/01/16 10:10:41;;;;;;;36.05;23.02;;;-0.80;90.30;;;;;;5053267;28;20862;-71
2021/01/16 10:13:13;;;;;;;29.30;20.35;;;-0.80;90.20;;;;;;5053335;28;20518;-71
2021/01/16 10:15:50;;;;;;;26.45;18.10;;;-0.80;89.80;;;;;;5069277;28;20457;-69
2021/01/16 10:18:25;;;;;;;29.08;19.60;;;-0.80;89.80;;;;;;5073157;28;20503;-71
2021/01/16 10:21:06;;;;;;;30.90;21.30;;;-0.80;90.10;;;;;;5063369;28;20405;-69
2021/01/16 10:23:41;;;;;;;30.13;21.23;;;-0.80;90.00;;;;;;5035391;28;20409;-69
2021/01/16 10:26:14;;;;;;;30.77;21.05;;;-0.80;90.20;;;;;;5050449;28;20407;-69
2021/01/16 10:29:06;;;;;;;33.00;20.83;;;-0.90;90.20;;;;;;5055339;28;20435;-70
2021/01/16 10:31:35;;;;;;;31.48;20.88;;;-0.90;90.80;;;;;;5068189;28;20541;-70
2021/01/16 10:34:07;;;;;;;27.27;19.42;;;-0.80;90.70;;;;;;5054790;28;20419;-70
2021/01/16 10:36:34;;;;;;;28.35;19.40;;;-0.70;90.70;;;;;;5068971;28;20836;-70
2021/01/16 10:39:15;;;;;;;28.97;19.60;;;-0.70;90.20;;;;;;5072675;28;20423;-70
2021/01/16 10:41:44;;;;;;;28.83;19.50;;;-0.70;90.40;;;;;;5068970;28;20461;-70
2021/01/16 10:44:15;;;;;;;28.95;19.48;;;-0.70;90.20;;;;;;5054982;28;20410;-70
2021/01/16 10:46:43;;;;;;;29.98;20.38;;;-0.70;90.20;;;;;;5067235;28;20459;-70
2021/01/16 10:49:25;;;;;;;30.90;20.80;;;-0.70;90.60;;;;;;5072258;28;20404;-70
2021/01/16 10:52:03;;;;;;;30.48;20.98;;;-0.80;91.00;;;;;;5065658;28;20465;-70
2021/01/16 10:54:31;;;;;;;31.77;21.25;;;-0.70;91.00;;;;;;5071853;28;20495;-70
2021/01/16 10:56:58;;;;;;;32.75;22.10;;;-0.70;91.00;;;;;;5068658;28;20543;-70
2021/01/16 10:59:29;;;;;;;32.28;22.02;;;-0.60;90.90;;;;;;5048283;28;20525;-70
2021/01/16 11:01:56;;;;;;;31.30;21.52;;;-0.50;90.60;;;;;;5056840;28;20892;-71
2021/01/16 11:04:25;;;;;;;34.55;22.33;;;-0.50;90.40;;;;;;5054313;28;20924;-70
2021/01/16 11:06:58;;;;;;;34.35;20.70;;;-0.40;90.30;;;;;;5068769;28;20657;-70
2021/01/16 11:10:03;;;;;;;30.17;21.52;;;-0.30;89.40;;;;;;5072019;28;20408;-70
2021/01/16 11:12:32;;;;;;;32.63;21.93;;;-0.30;89.90;;;;;;5068271;28;20800;-70
2021/01/16 11:15:00;;;;;;;32.55;20.98;;;-0.30;90.00;;;;;;5054225;28;20412;-70
2021/01/16 11:18:02;;;;;;;29.70;21.25;;;-0.10;88.80;;;;;;5054206;28;20497;-70
2021/01/16 11:20:30;;;;;;;31.95;20.67;;;-0.20;88.30;;;;;;4957158;28;20409;-70
2021/01/16 11:23:18;;;;;;;30.93;20.83;;;-0.20;87.30;;;;;;5043822;28;20423;-71
2021/01/16 11:25:47;;;;;;;29.42;20.83;;;-0.20;87.40;;;;;;5071752;28;20856;-70
2021/01/16 11:28:24;;;;;;;32.88;19.95;;;-0.10;87.10;;;;;;5068010;28;21001;-71
2021/01/16 11:31:05;;;;;;;28.90;19.02;;;0.00;86.90;;;;;;5071097;28;20435;-70
2021/01/16 11:33:31;;;;;;;26.52;18.40;;;0.10;84.60;;;;;;5067984;28;20483;-70
2021/01/16 11:36:03;;;;;;;27.13;18.90;;;0.10;84.20;;;;;;5071255;28;20891;-70
2021/01/16 11:38:38;;;;;;;30.65;20.20;;;0.10;83.90;;;;;;5067851;28;20745;-70
2021/01/16 11:41:08;;;;;;;27.40;18.95;;;0.10;84.80;;;;;;5048230;28;20438;-70
2021/01/16 11:43:34;;;;;;;26.67;18.58;;;0.00;84.50;;;;;;5047356;28;20401;-70
2021/01/16 11:46:12;;;;;;;27.33;18.17;;;0.00;85.10;;;;;;5070234;28;20630;-70
2021/01/16 11:48:41;;;;;;;26.45;18.63;;;0.00;84.60;;;;;;5042790;28;20417;-70
2021/01/16 11:51:14;;;;;;;24.13;17.15;;;-0.10;85.10;;;;;;5041812;28;20469;-70
2021/01/16 11:53:44;;;;;;;27.60;18.35;;;0.10;84.50;;;;;;5053697;28;20407;-70
2021/01/16 11:56:13;;;;;;;24.20;16.98;;;0.00;83.50;;;;;;5046085;28;20409;-70
2021/01/16 11:58:41;;;;;;;28.95;18.10;;;-0.10;84.50;;;;;;5067510;28;20431;-70
2021/01/16 12:01:08;;;;;;;24.20;16.55;;;0.00;85.20;;;;;;5066955;28;20444;-70
2021/01/16 12:03:36;;;;;;;21.75;15.60;;;0.20;84.10;;;;;;5059336;28;20406;-70
2021/01/16 12:06:24;;;;;;;24.05;15.50;;;0.00;83.80;;;;;;5042195;28;20639;-70
2021/01/16 12:08:50;;;;;;;21.50;15.30;;;0.00;84.10;;;;;;5032114;28;20409;-70
2021/01/16 12:11:17;;;;;;;22.25;15.60;;;0.00;83.90;;;;;;5049416;28;20844;-70
2021/01/16 12:13:49;;;;;;;23.33;15.80;;;0.10;83.70;;;;;;5063927;28;20417;-70
2021/01/16 12:16:15;;;;;;;22.23;15.00;;;0.10;83.70;;;;;;5039109;28;20412;-70
2021/01/16 12:18:43;;;;;;;23.08;15.73;;;-0.10;83.80;;;;;;5070666;28;20423;-70
2021/01/16 12:21:10;;;;;;;22.25;15.93;;;-0.10;84.30;;;;;;5067325;28;20466;-70
2021/01/16 12:23:45;;;;;;;22.33;16.17;;;0.00;84.20;;;;;;5070336;28;20775;-70
2021/01/16 12:26:16;;;;;;;25.55;17.30;;;-0.10;84.10;;;;;;5064093;28;20437;-70
2021/01/16 12:28:47;;;;;;;24.38;16.08;;;-0.10;84.80;;;;;;5032906;28;20866;-70
2021/01/16 12:31:33;;;;;;;25.37;17.13;;;-0.20;84.40;;;;;;5030783;28;20714;-70
2021/01/16 12:34:06;;;;;;;25.00;17.10;;;-0.30;85.40;;;;;;5050667;28;20414;-70
2021/01/16 12:36:33;;;;;;;25.95;17.35;;;-0.30;86.40;;;;;;5031526;28;20802;-70
2021/01/16 12:39:04;;;;;;;26.27;18.10;;;-0.20;87.10;;;;;;5052482;28;20481;-70
2021/01/16 12:41:33;;;;;;;24.55;17.20;;;-0.20;87.60;;;;;;5069434;28;20416;-70
2021/01/16 12:43:59;;;;;;;25.40;17.37;;;-0.30;87.50;;;;;;5030507;28;20420;-70
2021/01/16 12:46:27;;;;;;;24.42;17.02;;;-0.30;87.70;;;;;;5044091;28;20496;-70
2021/01/16 12:48:54;;;;;;;22.85;16.20;;;-0.40;88.40;;;;;;5043048;28;20490;-70
2021/01/16 12:51:21;;;;;;;26.42;16.73;;;-0.50;88.20;;;;;;5050464;28;20409;-70